createdAt,value
2023-05-21T00:00:45.861Z,0.80
2023-05-21T00:03:12.560Z,0.70
2023-05-21T00:05:45.581Z,0.70
2023-05-21T00:08:12.290Z,0.73
2023-05-21T00:10:38.958Z,0.82
2023-05-21T00:13:05.633Z,0.70
2023-05-21T00:15:32.326Z,0.70
2023-05-21T00:17:59.004Z,1.00
2023-05-21T00:20:25.749Z,0.85
2023-05-21T00:22:52.394Z,0.60
2023-05-21T00:25:19.102Z,0.90
2023-05-21T00:27:45.748Z,0.82
2023-05-21T00:30:12.455Z,0.90
2023-05-21T00:32:39.196Z,0.65
2023-05-21T00:35:06.403Z,0.85
2023-05-21T00:37:33.034Z,1.02
2023-05-21T00:40:03.015Z,0.85
2023-05-21T00:42:29.645Z,0.95
2023-05-21T00:44:56.674Z,0.88
2023-05-21T00:47:23.353Z,1.00
2023-05-21T00:49:50.088Z,0.90
2023-05-21T00:52:16.834Z,1.05
2023-05-21T00:54:43.486Z,1.20
2023-05-21T00:57:10.177Z,0.95
2023-05-21T00:59:36.822Z,1.13
2023-05-21T01:02:03.588Z,0.80
2023-05-21T01:04:30.614Z,0.90
2023-05-21T01:06:57.294Z,1.00
2023-05-21T01:09:24.710Z,0.82
2023-05-21T01:11:51.544Z,1.00
2023-05-21T01:14:18.552Z,0.80
2023-05-21T01:16:46.209Z,0.80
2023-05-21T01:19:21.081Z,0.70
2023-05-21T01:22:03.660Z,0.88
2023-05-21T01:24:30.650Z,1.08
2023-05-21T01:26:57.288Z,1.00
2023-05-21T01:29:24.202Z,1.00
2023-05-21T01:32:21.508Z,0.85
2023-05-21T01:35:11.276Z,1.02
2023-05-21T01:37:45.251Z,0.93
2023-05-21T01:40:38.630Z,1.00
2023-05-21T01:43:05.992Z,1.05
2023-05-21T01:45:32.611Z,1.00
2023-05-21T01:47:59.324Z,1.33
2023-05-21T01:50:26.177Z,1.05
2023-05-21T01:52:54.066Z,1.10
2023-05-21T01:55:20.995Z,1.00
2023-05-21T01:57:47.657Z,1.20
2023-05-21T02:00:14.596Z,1.10
2023-05-21T02:02:41.354Z,0.95
2023-05-21T02:05:08.413Z,1.10
2023-05-21T02:07:35.056Z,1.00
2023-05-21T02:10:01.681Z,1.02
2023-05-21T02:12:28.353Z,1.50
2023-05-21T02:14:55.396Z,1.20
2023-05-21T02:17:22.525Z,1.27
2023-05-21T02:19:49.201Z,1.13
2023-05-21T02:22:15.876Z,1.00
2023-05-21T02:24:42.579Z,1.10
2023-05-21T02:27:09.251Z,0.93
2023-05-21T02:29:36.408Z,1.17
2023-05-21T02:32:03.280Z,1.20
2023-05-21T02:34:30.066Z,0.88
2023-05-21T02:36:56.850Z,1.02
2023-05-21T02:39:23.478Z,1.02
2023-05-21T02:41:50.118Z,1.00
2023-05-21T02:44:16.782Z,1.40
2023-05-21T02:46:43.428Z,1.23
2023-05-21T02:49:10.111Z,1.05
2023-05-21T02:51:36.829Z,1.08
2023-05-21T02:54:04.015Z,1.23
2023-05-21T02:56:30.754Z,1.10
2023-05-21T02:58:57.396Z,0.93
2023-05-21T03:01:24.067Z,1.10
2023-05-21T03:03:50.781Z,1.30
2023-05-21T03:06:17.461Z,1.40
2023-05-21T03:08:44.109Z,1.13
2023-05-21T03:11:10.799Z,1.30
2023-05-21T03:13:37.507Z,1.08
2023-05-21T03:16:04.458Z,1.20
2023-05-21T03:18:31.165Z,1.00
2023-05-21T03:20:57.819Z,1.35
2023-05-21T03:23:24.511Z,1.02
2023-05-21T03:25:51.142Z,0.88
2023-05-21T03:28:18.336Z,0.90
2023-05-21T03:30:44.981Z,1.08
2023-05-21T03:33:12.426Z,1.10
2023-05-21T03:35:39.209Z,1.05
2023-05-21T03:38:05.877Z,1.13
2023-05-21T03:40:32.541Z,1.17
2023-05-21T03:42:59.196Z,0.80
2023-05-21T03:45:25.822Z,0.90
2023-05-21T03:47:52.520Z,1.25
2023-05-21T03:50:19.254Z,1.20
2023-05-21T03:52:45.901Z,0.88
2023-05-21T03:55:12.652Z,1.10
2023-05-21T03:57:41.152Z,1.13
2023-05-21T04:00:08.259Z,1.42
2023-05-21T04:02:34.989Z,1.05
2023-05-21T04:05:01.707Z,1.02
2023-05-21T04:07:28.371Z,0.82
2023-05-21T04:09:55.127Z,1.33
2023-05-21T04:12:21.767Z,1.08
2023-05-21T04:14:48.482Z,1.00
2023-05-21T04:17:15.158Z,1.00
2023-05-21T04:19:41.819Z,1.10
2023-05-21T04:22:10.270Z,1.02
2023-05-21T04:24:36.908Z,0.80
2023-05-21T04:27:03.828Z,1.40
2023-05-21T04:29:30.585Z,0.93
2023-05-21T04:31:57.240Z,1.10
2023-05-21T04:34:23.929Z,1.25
2023-05-21T04:36:50.565Z,1.13
2023-05-21T04:39:17.254Z,1.10
2023-05-21T04:41:43.910Z,1.02
2023-05-21T04:44:10.612Z,1.25
2023-05-21T04:46:38.843Z,1.25
2023-05-21T04:51:33.602Z,0.88
2023-05-21T04:54:00.371Z,1.05
2023-05-21T04:56:27.123Z,1.23
2023-05-21T04:58:54.137Z,1.20
2023-05-21T05:01:21.467Z,1.30
2023-05-21T05:03:48.217Z,1.10
2023-05-21T05:06:14.957Z,1.38
2023-05-21T05:08:41.625Z,1.17
2023-05-21T05:11:08.284Z,1.25
2023-05-21T05:13:35.090Z,1.08
2023-05-21T05:16:01.775Z,1.35
2023-05-21T05:18:29.203Z,1.50
2023-05-21T05:20:55.861Z,1.10
2023-05-21T05:23:22.500Z,1.33
2023-05-21T05:25:49.160Z,1.30
2023-05-21T05:28:15.842Z,1.55
2023-05-21T05:30:42.536Z,1.17
2023-05-21T05:33:09.239Z,1.50
2023-05-21T05:35:36.112Z,1.35
2023-05-21T05:38:02.825Z,1.50
2023-05-21T05:40:29.530Z,1.52
2023-05-21T05:42:56.230Z,1.33
2023-05-21T05:45:22.859Z,1.27
2023-05-21T05:47:49.572Z,1.20
2023-05-21T05:50:16.244Z,1.60
2023-05-21T05:52:42.932Z,1.20
2023-05-21T05:55:10.051Z,1.30
2023-05-21T05:57:36.729Z,1.60
2023-05-21T06:00:04.730Z,1.45
2023-05-21T06:02:31.461Z,1.40
2023-05-21T06:04:58.135Z,1.52
2023-05-21T06:07:24.779Z,1.88
2023-05-21T06:09:51.446Z,1.50
2023-05-21T06:12:18.116Z,1.58
2023-05-21T06:14:45.202Z,1.45
2023-05-21T06:17:12.340Z,1.85
2023-05-21T06:19:39.577Z,1.80
2023-05-21T06:22:06.327Z,1.83
2023-05-21T06:24:32.961Z,1.25
2023-05-21T06:26:59.615Z,1.75
2023-05-21T06:29:26.250Z,1.70
2023-05-21T06:31:52.925Z,1.92
2023-05-21T06:34:19.564Z,1.85
2023-05-21T06:36:46.202Z,1.70
2023-05-21T06:39:12.886Z,1.50
2023-05-21T06:41:39.530Z,1.50
2023-05-21T06:44:06.252Z,1.48
2023-05-21T06:46:33.061Z,1.48
2023-05-21T06:48:59.822Z,1.67
2023-05-21T06:51:26.512Z,1.50
2023-05-21T06:53:53.194Z,1.40
2023-05-21T06:56:19.849Z,1.48
2023-05-21T06:58:46.491Z,1.50
2023-05-21T07:01:13.199Z,1.20
2023-05-21T07:03:40.024Z,1.42
2023-05-21T07:06:06.735Z,1.45
2023-05-21T07:08:35.636Z,1.63
2023-05-21T07:11:02.308Z,1.45
2023-05-21T07:13:29.820Z,1.42
2023-05-21T07:15:56.540Z,1.58
2023-05-21T07:18:23.227Z,1.83
2023-05-21T07:20:49.905Z,1.52
2023-05-21T07:23:16.576Z,1.60
2023-05-21T07:25:43.220Z,1.60
2023-05-21T07:28:09.903Z,1.58
2023-05-21T07:30:36.598Z,1.38
2023-05-21T07:33:03.331Z,1.75
2023-05-21T07:35:30.068Z,1.42
2023-05-21T07:37:56.749Z,1.50
2023-05-21T07:40:23.502Z,1.95
2023-05-21T07:42:50.204Z,1.77
2023-05-21T07:45:16.912Z,1.65
2023-05-21T07:47:45.032Z,1.50
2023-05-21T07:50:12.323Z,1.58
2023-05-21T07:52:39.006Z,1.63
2023-05-21T07:55:06.226Z,1.63
2023-05-21T07:57:32.896Z,1.60
2023-05-21T07:59:59.528Z,1.60
2023-05-21T08:02:26.253Z,1.70
2023-05-21T08:04:53.030Z,1.80
2023-05-21T08:07:19.695Z,1.55
2023-05-21T08:09:46.342Z,2.03
2023-05-21T08:12:13.017Z,1.77
2023-05-21T08:14:39.653Z,1.88
2023-05-21T08:17:06.292Z,2.20
2023-05-21T08:19:32.981Z,1.90
2023-05-21T08:21:59.708Z,1.98
2023-05-21T08:24:26.361Z,1.98
2023-05-21T08:26:53.026Z,1.90
2023-05-21T08:29:19.687Z,1.85
2023-05-21T08:31:46.411Z,1.90
2023-05-21T08:34:13.082Z,1.70
2023-05-21T08:36:39.793Z,1.80
2023-05-21T08:39:06.439Z,1.70
2023-05-21T08:41:33.101Z,1.73
2023-05-21T08:43:59.917Z,1.63
2023-05-21T08:46:26.664Z,1.75
2023-05-21T08:48:53.415Z,1.92
2023-05-21T08:51:20.068Z,1.85
2023-05-21T08:53:46.758Z,2.08
2023-05-21T08:56:13.462Z,1.83
2023-05-21T08:58:40.991Z,1.73
2023-05-21T09:01:07.725Z,1.77
2023-05-21T09:03:34.467Z,2.03
2023-05-21T09:06:01.132Z,1.83
2023-05-21T09:08:31.059Z,2.10
2023-05-21T09:10:57.757Z,1.73
2023-05-21T09:13:24.933Z,1.98
2023-05-21T09:15:51.580Z,1.80
2023-05-21T09:18:18.265Z,1.52
2023-05-21T09:20:45.045Z,1.52
2023-05-21T09:23:11.771Z,1.65
2023-05-21T09:25:38.965Z,1.60
2023-05-21T09:28:11.907Z,1.50
2023-05-21T09:30:47.102Z,1.67
2023-05-21T09:33:23.974Z,1.38
2023-05-21T09:35:50.590Z,1.60
2023-05-21T09:38:17.290Z,1.48
2023-05-21T09:40:44.671Z,1.92
2023-05-21T09:43:13.998Z,1.35
2023-05-21T09:45:50.053Z,1.23
2023-05-21T09:48:16.724Z,1.85
2023-05-21T09:50:43.363Z,1.60
2023-05-21T09:53:13.006Z,1.67
2023-05-21T09:55:39.900Z,1.83
2023-05-21T09:58:06.552Z,1.52
2023-05-21T10:00:33.220Z,1.52
2023-05-21T10:03:04.670Z,2.05
2023-05-21T10:05:31.343Z,1.73
2023-05-21T10:08:02.239Z,1.85
2023-05-21T10:10:29.883Z,1.83
2023-05-21T10:13:06.502Z,2.05
2023-05-21T10:15:37.983Z,1.60
2023-05-21T10:18:04.719Z,1.70
2023-05-21T10:20:31.455Z,2.30
2023-05-21T10:22:58.860Z,1.95
2023-05-21T10:25:25.844Z,1.85
2023-05-21T10:27:53.684Z,1.92
2023-05-21T10:30:20.326Z,2.00
2023-05-21T10:32:47.902Z,1.95
2023-05-21T10:35:16.035Z,1.80
2023-05-21T10:37:44.114Z,1.73
2023-05-21T10:40:11.297Z,1.70
2023-05-21T10:43:02.297Z,1.83
2023-05-21T10:45:53.656Z,1.35
2023-05-21T10:48:33.640Z,1.52
2023-05-21T10:51:03.415Z,1.90
2023-05-21T10:53:51.972Z,1.63
2023-05-21T10:56:39.927Z,1.80
2023-05-21T10:59:28.542Z,1.63
2023-05-21T11:01:55.199Z,1.70
2023-05-21T11:04:22.783Z,1.70
2023-05-21T11:06:49.721Z,1.80
2023-05-21T11:09:16.387Z,1.52
2023-05-21T11:11:50.528Z,1.90
2023-05-21T11:14:36.896Z,1.90
2023-05-21T11:17:12.945Z,2.03
2023-05-21T11:19:43.596Z,1.75
2023-05-21T11:22:30.608Z,1.70
2023-05-21T11:25:00.890Z,1.88
2023-05-21T11:27:40.490Z,2.08
2023-05-21T11:30:08.445Z,1.92
2023-05-21T11:33:10.248Z,1.90
2023-05-21T11:35:59.064Z,1.60
2023-05-21T11:38:37.036Z,2.03
2023-05-21T11:41:03.793Z,1.70
2023-05-21T11:43:30.491Z,1.90
2023-05-21T11:45:57.209Z,2.08
2023-05-21T11:48:28.426Z,1.85
2023-05-21T11:50:56.089Z,2.13
2023-05-21T11:53:22.727Z,1.98
2023-05-21T11:55:49.395Z,1.90
2023-05-21T11:58:16.025Z,2.20
2023-05-21T12:00:42.680Z,2.10
2023-05-21T12:03:09.408Z,2.00
2023-05-21T12:05:48.680Z,1.83
2023-05-21T12:08:25.262Z,1.77
2023-05-21T12:10:58.091Z,1.75
2023-05-21T12:13:24.728Z,2.17
2023-05-21T12:15:52.477Z,1.90
2023-05-21T13:04:45.845Z,1.80
2023-05-21T13:07:12.761Z,1.90
2023-05-21T13:09:39.408Z,2.00
2023-05-21T13:12:06.256Z,1.67
2023-05-21T13:14:32.896Z,2.00
2023-05-21T13:16:59.574Z,2.00
2023-05-21T13:19:26.388Z,1.92
2023-05-21T13:21:53.114Z,1.85
2023-05-21T13:24:19.773Z,1.92
2023-05-21T13:26:46.558Z,2.00
2023-05-21T13:29:14.432Z,1.90
2023-05-21T13:31:42.204Z,1.73
2023-05-21T13:34:09.163Z,1.65
2023-05-21T13:36:36.150Z,1.65
2023-05-21T13:39:02.785Z,1.77
2023-05-21T13:41:29.436Z,1.58
2023-05-21T13:43:56.205Z,1.70
2023-05-21T13:46:25.487Z,2.03
2023-05-21T13:48:52.171Z,1.52
2023-05-21T13:51:34.524Z,1.73
2023-05-21T13:54:04.547Z,1.75
2023-05-21T13:56:31.280Z,1.67
2023-05-21T13:58:57.938Z,1.60
2023-05-21T14:01:24.698Z,1.50
2023-05-21T14:03:51.417Z,1.80
2023-05-21T14:06:18.137Z,1.92
2023-05-21T14:08:44.789Z,1.88
2023-05-21T14:11:11.438Z,1.95
2023-05-21T14:13:38.198Z,1.90
2023-05-21T14:16:05.216Z,1.90
2023-05-21T14:18:34.371Z,1.58
2023-05-21T14:23:27.664Z,1.67
2023-05-21T14:25:54.400Z,1.55
2023-05-21T14:28:21.253Z,1.70
2023-05-21T14:30:49.953Z,2.00
2023-05-21T14:33:16.657Z,1.77
2023-05-21T14:35:43.371Z,2.03
2023-05-21T14:38:10.734Z,1.55
2023-05-21T14:40:37.404Z,1.70
2023-05-21T14:43:04.036Z,1.63
2023-05-21T14:45:30.742Z,1.88
2023-05-21T14:47:57.431Z,2.00
2023-05-21T14:50:24.158Z,1.88
2023-05-21T14:52:50.801Z,1.92
2023-05-21T14:55:17.558Z,1.80
2023-05-21T14:57:44.550Z,1.95
2023-05-21T15:00:12.089Z,2.20
2023-05-21T15:02:38.897Z,1.98
2023-05-21T15:05:05.980Z,1.85
2023-05-21T15:07:32.653Z,1.88
2023-05-21T15:09:59.277Z,1.92
2023-05-21T15:12:25.908Z,1.83
2023-05-21T15:14:52.616Z,1.92
2023-05-21T15:17:19.325Z,2.00
2023-05-21T15:19:45.949Z,2.00
2023-05-21T15:22:12.602Z,1.85
2023-05-21T15:24:39.300Z,2.05
2023-05-21T15:27:06.020Z,2.42
2023-05-21T15:29:32.686Z,1.80
2023-05-21T15:31:59.321Z,1.95
2023-05-21T15:34:26.125Z,2.05
2023-05-21T15:36:52.868Z,2.13
2023-05-21T15:39:19.528Z,2.08
2023-05-21T15:41:46.181Z,1.90
2023-05-21T15:44:12.830Z,2.22
2023-05-21T15:46:39.558Z,1.90
2023-05-21T15:49:06.220Z,2.13
2023-05-21T15:51:32.915Z,1.85
2023-05-21T15:53:59.776Z,2.05
2023-05-21T15:56:26.434Z,2.05
2023-05-21T15:58:53.068Z,2.00
2023-05-21T16:01:19.770Z,1.98
2023-05-21T16:03:46.472Z,2.35
2023-05-21T16:06:13.127Z,2.13
2023-05-21T16:08:39.776Z,1.98
2023-05-21T16:11:06.513Z,1.85
2023-05-21T16:13:33.142Z,2.08
2023-05-21T16:15:59.805Z,1.90
2023-05-21T16:18:26.511Z,2.35
2023-05-21T16:20:55.155Z,2.15
2023-05-21T16:23:22.075Z,2.20
2023-05-21T16:25:48.899Z,2.22
2023-05-21T16:28:15.660Z,2.05
2023-05-21T16:30:42.481Z,2.15
2023-05-21T16:33:09.738Z,2.25
2023-05-21T16:35:36.581Z,1.95
2023-05-21T16:38:03.382Z,1.88
2023-05-21T16:40:30.012Z,2.40
2023-05-21T16:42:57.034Z,2.00
2023-05-21T16:45:23.703Z,2.33
2023-05-21T16:47:51.114Z,2.70
2023-05-21T16:50:20.884Z,2.33
2023-05-21T16:52:47.579Z,2.33
2023-05-21T16:55:14.750Z,2.10
2023-05-21T16:57:41.529Z,2.00
2023-05-21T17:00:08.693Z,2.40
2023-05-21T17:02:35.413Z,2.03
2023-05-21T17:05:02.211Z,2.30
2023-05-21T17:07:28.892Z,2.03
2023-05-21T17:09:55.556Z,2.25
2023-05-21T17:12:22.246Z,2.50
2023-05-21T17:14:48.896Z,2.40
2023-05-21T17:17:15.572Z,2.40
2023-05-21T17:19:44.434Z,2.42
2023-05-21T17:22:11.370Z,1.13
2023-05-21T17:24:38.021Z,1.50
2023-05-21T17:27:04.828Z,1.33
2023-05-21T17:29:32.429Z,1.58
2023-05-21T17:31:59.812Z,1.40
2023-05-21T17:34:26.989Z,1.73
2023-05-21T17:36:54.169Z,1.50
2023-05-21T17:39:20.830Z,1.58
2023-05-21T17:41:47.556Z,1.35
2023-05-21T17:44:15.281Z,1.20
2023-05-21T17:46:41.994Z,1.45
2023-05-21T17:49:08.868Z,1.42
2023-05-21T17:51:36.291Z,1.33
2023-05-21T17:54:03.204Z,1.20
2023-05-21T17:56:29.986Z,1.30
2023-05-21T17:58:56.962Z,1.23
2023-05-21T18:01:23.735Z,1.50
2023-05-21T18:03:50.472Z,1.20
2023-05-21T18:06:17.197Z,1.30
2023-05-21T18:08:43.882Z,1.33
2023-05-21T18:11:10.533Z,1.20
2023-05-21T18:13:37.200Z,1.65
2023-05-21T18:16:03.992Z,1.00
2023-05-21T18:18:30.917Z,1.52
2023-05-21T18:20:57.590Z,1.20
2023-05-21T18:23:24.231Z,1.40
2023-05-21T18:25:53.383Z,1.42
2023-05-21T18:28:20.266Z,1.55
2023-05-21T18:30:46.974Z,1.13
2023-05-21T18:33:13.738Z,1.40
2023-05-21T18:35:41.321Z,1.30
2023-05-21T18:38:07.982Z,1.45
2023-05-21T18:40:34.766Z,1.27
2023-05-21T18:43:01.688Z,1.45
2023-05-21T18:45:28.575Z,1.10
2023-05-21T18:47:55.629Z,1.30
2023-05-21T18:50:22.423Z,1.40
2023-05-21T18:52:51.599Z,1.50
2023-05-21T18:55:18.373Z,1.23
2023-05-21T18:57:45.156Z,1.08
2023-05-21T19:00:12.264Z,1.40
2023-05-21T19:02:39.669Z,1.30
2023-05-21T19:05:07.271Z,1.40
2023-05-21T19:07:33.977Z,1.40
2023-05-21T19:10:00.678Z,1.10
2023-05-21T19:12:27.333Z,1.33
2023-05-21T19:14:53.979Z,1.40
2023-05-21T19:17:20.726Z,1.48
2023-05-21T19:19:47.625Z,1.30
2023-05-21T19:22:14.320Z,1.27
2023-05-21T19:24:41.007Z,0.90
2023-05-21T19:27:07.644Z,1.35
2023-05-21T19:29:34.324Z,1.08
2023-05-21T19:32:00.984Z,1.10
2023-05-21T19:34:28.210Z,1.00
2023-05-21T19:36:54.941Z,0.73
2023-05-21T19:39:21.627Z,1.67
2023-05-21T19:41:48.299Z,1.08
2023-05-21T19:44:14.940Z,1.15
2023-05-21T19:46:41.611Z,1.27
2023-05-21T19:49:08.329Z,1.20
2023-05-21T19:51:35.045Z,0.95
2023-05-21T19:54:03.608Z,1.13
2023-05-21T19:56:30.796Z,1.30
2023-05-21T19:58:57.441Z,0.95
2023-05-21T20:01:24.093Z,1.10
2023-05-21T20:03:50.817Z,1.33
2023-05-21T20:06:17.508Z,1.10
2023-05-21T20:08:44.198Z,1.50
2023-05-21T20:11:13.906Z,1.50
2023-05-21T20:13:40.929Z,1.05
2023-05-21T20:16:07.690Z,1.50
2023-05-21T20:18:37.396Z,1.23
2023-05-21T20:21:04.062Z,1.60
2023-05-21T20:23:30.879Z,1.67
2023-05-21T20:25:57.559Z,1.45
2023-05-21T20:28:24.201Z,1.55
2023-05-21T20:30:55.028Z,1.42
2023-05-21T20:33:21.814Z,1.95
2023-05-21T20:35:48.483Z,1.77
2023-05-21T20:38:15.144Z,1.88
2023-05-21T20:40:42.541Z,1.45
2023-05-21T20:43:09.264Z,1.80
2023-05-21T20:45:35.901Z,1.80
2023-05-21T20:48:02.581Z,1.67
2023-05-21T20:50:29.281Z,1.52
2023-05-21T20:52:55.926Z,1.63
2023-05-21T20:55:22.597Z,1.45
2023-05-21T20:57:49.313Z,1.60
2023-05-21T21:00:16.288Z,1.90
2023-05-21T21:02:43.113Z,1.90
2023-05-21T21:05:10.048Z,1.50
2023-05-21T21:07:36.960Z,1.65
2023-05-21T21:10:03.766Z,1.90
2023-05-21T21:12:30.416Z,1.77
2023-05-21T21:14:57.153Z,2.25
2023-05-21T21:17:23.898Z,1.90
2023-05-21T21:19:50.596Z,2.08
2023-05-21T21:22:17.327Z,2.03
2023-05-21T21:24:44.025Z,2.17
2023-05-21T21:27:10.766Z,2.35
2023-05-21T21:29:37.733Z,2.53
2023-05-21T21:32:04.856Z,2.47
2023-05-21T21:34:31.608Z,3.38
2023-05-21T21:36:58.310Z,2.70
2023-05-21T21:39:25.116Z,2.70
2023-05-21T21:41:51.881Z,2.97
2023-05-21T21:44:18.597Z,2.75
2023-05-21T21:46:45.290Z,2.85
2023-05-21T21:49:12.011Z,3.35
2023-05-21T21:51:38.747Z,2.58
2023-05-21T21:54:05.497Z,3.20
2023-05-21T21:56:32.162Z,3.03
2023-05-21T21:58:58.804Z,3.03
2023-05-21T22:01:25.497Z,3.53
2023-05-21T22:03:52.221Z,3.65
2023-05-21T22:06:18.955Z,3.33
2023-05-21T22:08:45.640Z,3.42
2023-05-21T22:11:12.324Z,3.22
2023-05-21T22:13:38.970Z,3.47
2023-05-21T22:16:06.013Z,3.40
2023-05-21T22:18:40.794Z,3.30
2023-05-21T22:21:09.382Z,3.40
2023-05-21T22:23:36.951Z,3.70
2023-05-21T22:26:03.797Z,3.45
2023-05-21T22:28:30.495Z,3.40
2023-05-21T22:30:57.817Z,3.33
2023-05-21T22:33:24.589Z,3.72
2023-05-21T22:35:51.241Z,3.17
2023-05-21T22:38:17.987Z,3.20
2023-05-21T22:40:44.671Z,3.65
2023-05-21T22:43:11.355Z,3.17
2023-05-21T22:45:38.050Z,3.85
2023-05-21T22:48:05.254Z,3.40
2023-05-21T22:50:31.917Z,3.78
2023-05-21T22:52:58.746Z,3.53
2023-05-21T22:55:25.520Z,3.42
2023-05-21T22:57:52.201Z,3.35
2023-05-21T23:00:19.042Z,3.53
2023-05-21T23:02:46.552Z,3.80
2023-05-21T23:05:13.333Z,4.30
2023-05-21T23:07:40.074Z,3.72
2023-05-21T23:10:07.267Z,3.88
2023-05-21T23:12:33.927Z,3.65
2023-05-21T23:15:00.603Z,3.50
2023-05-21T23:17:27.261Z,3.50
2023-05-21T23:19:53.969Z,3.42
2023-05-21T23:22:20.665Z,3.72
2023-05-21T23:24:47.837Z,3.90
2023-05-21T23:27:15.315Z,3.78
2023-05-21T23:29:41.988Z,3.22
2023-05-21T23:32:09.033Z,4.05
2023-05-21T23:34:35.981Z,3.88
2023-05-21T23:37:02.714Z,3.97
2023-05-21T23:39:29.607Z,3.95
2023-05-21T23:41:56.429Z,3.85
2023-05-21T23:44:23.153Z,4.43
2023-05-21T23:46:49.827Z,3.53
2023-05-21T23:49:16.482Z,3.60
2023-05-21T23:51:43.121Z,4.32
2023-05-21T23:54:09.784Z,4.15
2023-05-21T23:56:36.421Z,4.03
2023-05-21T23:59:03.072Z,3.92
